createdAt,value
2022-09-28T00:00:41.995Z,99126.06
2022-09-28T00:03:09.277Z,99143.03
2022-09-28T00:05:35.838Z,99129.88
2022-09-28T00:08:02.364Z,99124.53
2022-09-28T00:10:28.902Z,99117.53
2022-09-28T00:12:55.526Z,99107.44
2022-09-28T00:15:22.527Z,99133.25
2022-09-28T00:17:49.023Z,99130.38
2022-09-28T00:20:17.262Z,99116.28
2022-09-28T00:22:43.802Z,99117.38
2022-09-28T00:25:10.408Z,99120.66
2022-09-28T00:27:36.901Z,99122.03
2022-09-28T00:30:04.364Z,99121.09
2022-09-28T00:32:30.820Z,99118.63
2022-09-28T00:34:57.263Z,99113.28
2022-09-28T00:37:23.809Z,99110.53
2022-09-28T00:39:50.524Z,99106.16
2022-09-28T00:42:22.869Z,99103.41
2022-09-28T00:44:54.209Z,99094.34
2022-09-28T00:47:31.204Z,99101.34
2022-09-28T00:50:20.917Z,99076.38
2022-09-28T00:53:19.872Z,99105.38
2022-09-28T00:55:54.017Z,99094.19
2022-09-28T00:58:29.138Z,99097.88
2022-09-28T01:00:58.098Z,99084.06
2022-09-28T01:03:26.598Z,99098.28
2022-09-28T01:05:54.921Z,99094.31
2022-09-28T01:08:23.414Z,99086.69
2022-09-28T01:10:51.209Z,99082.59
2022-09-28T01:13:20.034Z,99092.16
2022-09-28T01:15:58.558Z,99080.53
2022-09-28T01:18:37.861Z,99082.84
2022-09-28T01:21:25.141Z,99086.56
2022-09-28T01:24:13.616Z,99089.84
2022-09-28T01:27:14.648Z,99090.09
2022-09-28T01:30:02.052Z,99087.50
2022-09-28T01:32:54.603Z,99095.84
2022-09-28T01:35:28.427Z,99092.44
2022-09-28T01:38:10.387Z,99070.44
2022-09-28T01:40:37.650Z,99086.13
2022-09-28T01:43:08.877Z,99063.06
2022-09-28T01:45:48.879Z,99093.50
2022-09-28T01:48:25.591Z,99091.03
2022-09-28T01:50:57.673Z,99071.63
2022-09-28T01:53:35.198Z,99080.66
2022-09-28T01:56:09.064Z,99084.34
2022-09-28T01:58:46.725Z,99084.78
2022-09-28T02:01:27.965Z,99077.50
2022-09-28T02:04:03.163Z,99075.03
2022-09-28T02:06:38.841Z,99082.84
2022-09-28T02:09:18.279Z,99072.06
2022-09-28T02:11:50.465Z,99065.91
2022-09-28T02:14:19.659Z,99070.38
2022-09-28T02:16:54.242Z,99081.63
2022-09-28T02:19:27.384Z,99075.88
2022-09-28T02:21:59.681Z,99080.66
2022-09-28T02:24:39.565Z,99072.97
2022-09-28T02:27:31.217Z,99071.47
2022-09-28T02:29:57.740Z,99070.13
2022-09-28T02:32:25.983Z,99082.69
2022-09-28T02:34:52.419Z,99084.03
2022-09-28T02:37:18.887Z,99072.13
2022-09-28T02:39:45.386Z,99079.91
2022-09-28T02:42:25.576Z,99090.44
2022-09-28T02:45:13.122Z,99083.31
2022-09-28T02:48:02.343Z,99088.25
2022-09-28T02:50:53.820Z,99091.66
2022-09-28T02:53:49.116Z,99087.84
2022-09-28T02:56:31.805Z,99086.59
2022-09-28T02:59:11.384Z,99091.50
2022-09-28T03:01:51.239Z,99082.38
2022-09-28T03:04:44.660Z,99086.19
2022-09-28T03:07:27.093Z,99096.56
2022-09-28T03:10:24.391Z,99090.41
2022-09-28T03:12:53.544Z,99078.09
2022-09-28T03:15:31.780Z,99092.47
2022-09-28T03:17:59.083Z,99087.69
2022-09-28T03:20:26.812Z,99098.44
2022-09-28T03:23:19.651Z,99103.34
2022-09-28T03:25:40.821Z,99101.44
2022-09-28T03:28:07.297Z,99097.88
2022-09-28T03:30:33.880Z,99098.25
2022-09-28T03:33:00.766Z,99088.00
2022-09-28T03:35:27.198Z,99103.19
2022-09-28T03:37:57.092Z,99096.19
2022-09-28T03:40:24.047Z,99084.16
2022-09-28T03:42:50.594Z,99088.13
2022-09-28T03:45:17.080Z,99095.09
2022-09-28T03:47:47.418Z,99089.06
2022-09-28T03:50:14.654Z,99077.53
2022-09-28T03:52:41.382Z,99081.78
2022-09-28T03:55:08.273Z,99082.59
2022-09-28T03:57:34.715Z,99088.47
2022-09-28T04:00:01.405Z,99088.78
2022-09-28T04:02:27.855Z,99092.19
2022-09-28T04:04:54.390Z,99084.25
2022-09-28T04:07:20.826Z,99079.47
2022-09-28T04:09:47.237Z,99087.16
2022-09-28T04:12:13.661Z,99092.72
2022-09-28T04:14:40.163Z,99097.56
2022-09-28T04:17:07.267Z,99089.75
2022-09-28T04:19:33.825Z,99090.72
2022-09-28T04:22:01.466Z,99090.41
2022-09-28T04:24:28.087Z,99099.31
2022-09-28T04:27:14.525Z,99088.13
2022-09-28T04:29:43.085Z,99094.94
2022-09-28T04:32:10.406Z,99094.31
2022-09-28T04:34:40.676Z,99095.38
2022-09-28T04:37:09.757Z,99108.41
2022-09-28T04:39:36.189Z,99106.75
2022-09-28T04:42:02.664Z,99096.63
2022-09-28T04:44:29.069Z,99102.78
2022-09-28T04:46:56.160Z,99100.34
2022-09-28T04:49:24.433Z,99098.56
2022-09-28T04:51:50.849Z,99093.78
2022-09-28T04:54:17.422Z,99100.19
2022-09-28T04:56:43.861Z,99096.91
2022-09-28T04:59:10.385Z,99084.91
2022-09-28T05:01:37.033Z,99098.03
2022-09-28T05:04:03.641Z,99102.03
2022-09-28T05:06:30.773Z,99091.91
2022-09-28T05:08:57.538Z,99092.72
2022-09-28T05:11:24.172Z,99091.91
2022-09-28T05:13:50.747Z,99080.44
2022-09-28T05:16:17.562Z,99097.69
2022-09-28T05:18:44.074Z,99094.09
2022-09-28T05:21:12.862Z,99089.19
2022-09-28T05:23:40.107Z,99096.91
2022-09-28T05:26:07.372Z,99107.44
2022-09-28T05:28:34.079Z,99098.56
2022-09-28T05:31:01.984Z,99100.47
2022-09-28T05:33:29.068Z,99096.66
2022-09-28T05:36:00.315Z,99108.41
2022-09-28T05:38:28.567Z,99103.19
2022-09-28T05:40:55.309Z,99116.72
2022-09-28T05:43:21.912Z,99106.34
2022-09-28T05:45:51.629Z,99107.00
2022-09-28T05:48:21.766Z,99105.25
2022-09-28T05:50:52.521Z,99107.84
2022-09-28T05:53:19.064Z,99121.91
2022-09-28T05:55:45.546Z,99121.38
2022-09-28T05:58:12.052Z,99129.72
2022-09-28T06:00:38.506Z,99121.63
2022-09-28T06:03:12.129Z,99129.97
2022-09-28T06:05:39.619Z,99129.44
2022-09-28T06:08:08.341Z,99130.28
2022-09-28T06:10:35.053Z,99126.16
2022-09-28T06:13:01.905Z,99126.84
2022-09-28T06:15:30.800Z,99125.06
2022-09-28T06:18:06.231Z,99127.25
2022-09-28T06:20:35.685Z,99139.53
2022-09-28T06:23:02.179Z,99129.97
2022-09-28T06:25:28.926Z,99142.00
2022-09-28T06:28:03.159Z,99128.84
2022-09-28T06:30:31.448Z,99137.88
2022-09-28T06:32:59.310Z,99135.81
2022-09-28T06:35:27.834Z,99155.50
2022-09-28T06:37:54.351Z,99147.41
2022-09-28T06:40:21.763Z,99142.66
2022-09-28T06:43:10.048Z,99151.78
2022-09-28T06:45:37.960Z,99157.16
2022-09-28T06:48:05.088Z,99159.47
2022-09-28T06:50:40.063Z,99166.00
2022-09-28T06:53:09.390Z,99163.94
2022-09-28T06:55:39.565Z,99172.56
2022-09-28T06:58:09.481Z,99176.94
2022-09-28T07:00:37.792Z,99165.56
2022-09-28T07:03:15.938Z,99170.34
2022-09-28T07:05:45.350Z,99174.84
2022-09-28T07:08:12.677Z,99172.78
2022-09-28T07:10:44.615Z,99182.31
2022-09-28T07:13:35.188Z,99179.41
2022-09-28T07:16:01.373Z,99178.19
2022-09-28T07:18:29.932Z,99169.25
2022-09-28T07:20:57.378Z,99188.66
2022-09-28T07:23:27.416Z,99174.00
2022-09-28T07:25:54.327Z,99190.28
2022-09-28T07:28:21.695Z,99186.56
2022-09-28T07:30:48.266Z,99188.78
2022-09-28T07:33:17.091Z,99196.38
2022-09-28T07:35:55.310Z,99188.22
2022-09-28T07:38:21.928Z,99198.59
2022-09-28T07:41:06.938Z,99196.13
2022-09-28T07:43:33.401Z,99205.22
2022-09-28T07:45:59.893Z,99203.78
2022-09-28T07:48:26.439Z,99199.66
2022-09-28T07:50:57.259Z,99194.56
2022-09-28T07:53:25.445Z,99210.94
2022-09-28T07:55:52.672Z,99204.56
2022-09-28T07:58:20.322Z,99209.63
2022-09-28T08:00:48.565Z,99218.47
2022-09-28T08:03:17.100Z,99216.00
2022-09-28T08:05:43.669Z,99203.63
2022-09-28T08:08:10.651Z,99221.47
2022-09-28T08:10:37.802Z,99227.84
2022-09-28T08:13:06.521Z,99229.69
2022-09-28T08:15:36.989Z,99228.97
2022-09-28T08:18:04.690Z,99238.47
2022-09-28T08:20:51.854Z,99230.00
2022-09-28T08:23:20.334Z,99237.97
2022-09-28T08:25:51.362Z,99235.50
2022-09-28T08:28:18.441Z,99235.47
2022-09-28T08:30:45.837Z,99242.53
2022-09-28T08:33:17.933Z,99249.56
2022-09-28T08:35:45.906Z,99246.75
2022-09-28T08:38:13.157Z,99244.66
2022-09-28T08:40:58.273Z,99247.72
2022-09-28T08:43:43.721Z,99257.69
2022-09-28T08:46:12.482Z,99253.28
2022-09-28T08:49:20.565Z,99254.47
2022-09-28T08:51:49.637Z,99263.97
2022-09-28T08:55:09.844Z,99268.75
2022-09-28T08:57:36.205Z,99270.53
2022-09-28T09:00:09.571Z,99264.00
2022-09-28T09:02:39.787Z,99269.25
2022-09-28T09:05:14.764Z,99272.34
2022-09-28T09:08:17.654Z,99271.06
2022-09-28T09:10:50.709Z,99284.78
2022-09-28T09:13:23.546Z,99276.94
2022-09-28T09:16:01.965Z,99284.44
2022-09-28T09:18:37.534Z,99272.69
2022-09-28T09:21:29.587Z,99278.94
2022-09-28T09:24:47.965Z,99288.25
2022-09-28T09:27:18.734Z,99290.00
2022-09-28T09:29:59.369Z,99292.78
2022-09-28T09:32:54.603Z,99296.25
2022-09-28T09:35:31.869Z,99288.41
2022-09-28T09:38:28.487Z,99292.38
2022-09-28T09:44:10.181Z,99294.00
2022-09-28T09:46:57.678Z,99301.47
2022-09-28T09:49:36.227Z,99312.25
2022-09-28T09:52:05.850Z,99303.38
2022-09-28T09:54:38.270Z,99303.50
2022-09-28T09:57:26.044Z,99305.94
2022-09-28T09:59:53.183Z,99297.00
2022-09-28T10:02:27.912Z,99307.09
2022-09-28T10:05:23.586Z,99302.16
2022-09-28T10:07:49.993Z,99309.31
2022-09-28T10:10:37.991Z,99300.88
2022-09-28T10:13:05.124Z,99306.81
2022-09-28T10:15:35.253Z,99300.28
2022-09-28T10:18:09.530Z,99303.84
2022-09-28T10:20:39.769Z,99297.63
2022-09-28T10:23:15.740Z,99299.34
2022-09-28T10:25:44.228Z,99291.19
2022-09-28T10:28:19.173Z,99286.63
2022-09-28T10:30:45.690Z,99295.91
2022-09-28T10:33:47.879Z,99293.94
2022-09-28T10:36:15.899Z,99288.69
2022-09-28T10:38:47.774Z,99277.78
2022-09-28T10:41:16.629Z,99304.53
2022-09-28T10:44:06.862Z,99294.44
2022-09-28T10:46:35.210Z,99294.56
2022-09-28T10:49:30.576Z,99295.56
2022-09-28T10:51:57.173Z,99299.09
2022-09-28T10:54:28.316Z,99286.97
2022-09-28T10:56:56.737Z,99297.19
2022-09-28T10:59:29.127Z,99293.09
2022-09-28T11:01:58.848Z,99302.81
2022-09-28T11:04:33.044Z,99297.09
2022-09-28T11:07:01.802Z,99288.34
2022-09-28T11:09:31.498Z,99295.69
2022-09-28T11:11:59.849Z,99296.81
2022-09-28T11:14:41.858Z,99302.56
2022-09-28T11:17:32.664Z,99294.56
2022-09-28T11:20:29.217Z,99308.03
2022-09-28T11:22:58.093Z,99307.16
2022-09-28T11:25:29.249Z,99298.13
2022-09-28T11:28:04.709Z,99298.94
2022-09-28T11:30:49.991Z,99301.84
2022-09-28T11:33:37.092Z,99302.00
2022-09-28T11:36:08.370Z,99308.81
2022-09-28T11:38:37.838Z,99304.94
2022-09-28T11:41:10.216Z,99303.19
2022-09-28T11:43:51.901Z,99315.22
2022-09-28T11:46:27.580Z,99303.34
2022-09-28T11:49:04.002Z,99304.66
2022-09-28T11:51:34.756Z,99301.84
2022-09-28T11:54:14.806Z,99298.94
2022-09-28T11:56:48.621Z,99299.03
2022-09-28T11:59:31.301Z,99304.28
2022-09-28T12:02:11.683Z,99297.28
2022-09-28T12:04:46.649Z,99284.50
2022-09-28T12:07:23.207Z,99300.63
2022-09-28T12:09:55.693Z,99305.88
2022-09-28T12:12:30.299Z,99310.41
2022-09-28T12:15:01.368Z,99306.16
2022-09-28T12:17:52.957Z,99310.50
2022-09-28T12:20:24.866Z,99317.41
2022-09-28T12:23:24.326Z,99317.88
2022-09-28T12:25:58.499Z,99313.34
2022-09-28T12:28:40.729Z,99312.38
2022-09-28T12:31:37.697Z,99316.13
2022-09-28T12:34:05.065Z,99324.25
2022-09-28T12:36:58.926Z,99320.97
2022-09-28T12:39:58.469Z,99315.91
2022-09-28T12:42:31.541Z,99322.31
2022-09-28T12:45:06.863Z,99316.09
2022-09-28T12:48:08.157Z,99326.59
2022-09-28T12:51:03.565Z,99319.28
2022-09-28T12:53:59.371Z,99320.25
2022-09-28T12:56:43.830Z,99322.56
2022-09-28T12:59:26.284Z,99313.03
2022-09-28T13:02:17.803Z,99310.84
2022-09-28T13:05:06.102Z,99313.78
2022-09-28T13:08:09.990Z,99318.38
2022-09-28T13:10:42.795Z,99302.03
2022-09-28T13:13:41.408Z,99309.38
2022-09-28T13:16:54.357Z,99313.03
2022-09-28T13:19:50.258Z,99305.88
2022-09-28T13:22:42.246Z,99308.84
2022-09-28T13:25:16.902Z,99301.75
2022-09-28T13:27:58.464Z,99304.84
2022-09-28T13:30:25.734Z,99292.34
2022-09-28T13:32:57.632Z,99292.69
2022-09-28T13:35:24.849Z,99299.69
2022-09-28T13:38:16.371Z,99304.59
2022-09-28T13:41:11.489Z,99301.19
2022-09-28T13:44:07.129Z,99303.25
2022-09-28T13:46:48.956Z,99312.88
2022-09-28T13:49:37.324Z,99301.75
2022-09-28T13:52:30.066Z,99296.97
2022-09-28T13:55:33.172Z,99303.13
2022-09-28T13:58:14.623Z,99304.91
2022-09-28T14:00:47.185Z,99306.41
2022-09-28T14:03:19.640Z,99297.53
2022-09-28T14:05:48.249Z,99302.44
2022-09-28T14:08:31.029Z,99281.81
2022-09-28T14:11:34.244Z,99294.00
2022-09-28T14:14:06.030Z,99289.59
2022-09-28T14:16:34.196Z,99298.19
2022-09-28T14:19:03.638Z,99302.91
2022-09-28T14:22:05.705Z,99308.00
2022-09-28T14:24:50.709Z,99303.34
2022-09-28T14:27:34.855Z,99311.34
2022-09-28T14:30:13.274Z,99312.44
2022-09-28T14:32:52.653Z,99321.91
2022-09-28T14:35:41.639Z,99316.84
2022-09-28T14:38:39.546Z,99317.47
2022-09-28T14:41:15.292Z,99308.78
2022-09-28T14:43:44.845Z,99309.34
2022-09-28T14:46:11.343Z,99313.22
2022-09-28T14:48:47.946Z,99307.41
2022-09-28T14:51:26.777Z,99304.88
2022-09-28T14:53:56.308Z,99311.06
2022-09-28T14:56:22.773Z,99305.38
2022-09-28T14:58:54.924Z,99303.25
2022-09-28T15:01:24.687Z,99303.91
2022-09-28T15:03:59.035Z,99311.94
2022-09-28T15:06:28.929Z,99292.97
2022-09-28T15:08:55.381Z,99308.91
2022-09-28T15:11:24.762Z,99318.34
2022-09-28T15:14:04.446Z,99320.53
2022-09-28T15:16:31.189Z,99328.53
2022-09-28T15:19:22.825Z,99348.75
2022-09-28T15:21:51.076Z,99352.47
2022-09-28T15:24:33.529Z,99351.84
2022-09-28T15:27:13.902Z,99364.97
2022-09-28T15:29:40.559Z,99361.09
2022-09-28T15:32:23.468Z,99361.94
2022-09-28T15:34:52.725Z,99368.38
2022-09-28T15:37:21.916Z,99344.34
2022-09-28T15:39:50.774Z,99356.78
2022-09-28T15:42:18.328Z,99366.28
2022-09-28T15:45:14.249Z,99376.91
2022-09-28T15:47:43.593Z,99363.19
2022-09-28T15:50:29.964Z,99366.13
2022-09-28T15:53:02.530Z,99382.50
2022-09-28T15:55:34.822Z,99379.06
2022-09-28T15:58:17.107Z,99379.69
2022-09-28T16:00:45.201Z,99380.88
2022-09-28T16:03:11.627Z,99388.53
2022-09-28T16:05:48.920Z,99387.91
2022-09-28T16:08:22.075Z,99399.38
2022-09-28T16:11:12.231Z,99403.47
2022-09-28T16:13:57.189Z,99388.91
2022-09-28T16:16:30.246Z,99395.75
2022-09-28T16:19:00.649Z,99396.75
2022-09-28T16:21:45.731Z,99403.97
2022-09-28T16:24:29.055Z,99408.34
2022-09-28T16:27:01.556Z,99410.13
2022-09-28T16:29:42.844Z,99415.53
2022-09-28T16:32:38.387Z,99421.25
2022-09-28T16:35:13.511Z,99422.56
2022-09-28T16:37:42.567Z,99408.97
2022-09-28T16:40:09.990Z,99421.53
2022-09-28T16:42:37.647Z,99424.81
2022-09-28T16:45:05.340Z,99423.97
2022-09-28T16:47:34.090Z,99423.59
2022-09-28T16:50:02.456Z,99413.25
2022-09-28T16:52:47.356Z,99432.56
2022-09-28T16:55:39.541Z,99423.22
2022-09-28T16:58:04.669Z,99425.31
2022-09-28T17:00:32.441Z,99425.31
2022-09-28T17:02:59.411Z,99428.09
2022-09-28T17:05:25.925Z,99421.38
2022-09-28T17:08:03.452Z,99418.25
2022-09-28T17:10:50.215Z,99420.38
2022-09-28T17:13:33.305Z,99408.38
2022-09-28T17:16:01.758Z,99413.63
2022-09-28T17:18:31.697Z,99424.38
2022-09-28T17:21:03.246Z,99412.91
2022-09-28T17:23:29.783Z,99417.81
2022-09-28T17:25:56.734Z,99423.19
2022-09-28T17:28:28.488Z,99423.97
2022-09-28T17:30:54.968Z,99424.59
2022-09-28T17:33:21.548Z,99428.84
2022-09-28T17:35:48.427Z,99419.81
2022-09-28T17:38:15.924Z,99418.97
2022-09-28T17:40:43.967Z,99430.75
2022-09-28T17:43:10.489Z,99439.41
2022-09-28T17:45:41.719Z,99432.38
2022-09-28T17:48:22.878Z,99431.19
2022-09-28T17:50:49.407Z,99436.75
2022-09-28T17:53:15.969Z,99426.75
2022-09-28T17:55:45.669Z,99432.50
2022-09-28T17:58:20.787Z,99437.72
2022-09-28T18:00:48.592Z,99444.56
2022-09-28T18:03:20.903Z,99445.69
2022-09-28T18:05:49.998Z,99441.91
2022-09-28T18:08:21.093Z,99449.22
2022-09-28T18:10:47.729Z,99439.22
2022-09-28T18:13:14.744Z,99440.09
2022-09-28T18:15:41.636Z,99447.34
2022-09-28T18:18:12.801Z,99433.06
2022-09-28T18:20:39.613Z,99450.25
2022-09-28T18:23:06.014Z,99433.19
2022-09-28T18:25:32.472Z,99459.16
2022-09-28T18:28:00.087Z,99443.88
2022-09-28T18:30:27.997Z,99460.72
2022-09-28T18:32:54.473Z,99455.63
2022-09-28T18:35:23.159Z,99455.25
2022-09-28T18:37:51.601Z,99459.22
2022-09-28T18:40:18.394Z,99459.34
2022-09-28T18:42:44.988Z,99465.34
2022-09-28T18:45:11.909Z,99445.94
2022-09-28T18:47:39.942Z,99466.88
2022-09-28T18:50:07.241Z,99472.41
2022-09-28T18:52:37.946Z,99464.63
2022-09-28T18:55:05.921Z,99465.53
2022-09-28T18:57:33.483Z,99479.75
2022-09-28T19:00:00.868Z,99482.00
2022-09-28T19:02:27.746Z,99483.38
2022-09-28T19:04:54.273Z,99472.72
2022-09-28T19:07:21.289Z,99475.91
2022-09-28T19:09:47.764Z,99474.25
2022-09-28T19:12:14.828Z,99471.28
2022-09-28T19:14:41.382Z,99477.47
2022-09-28T19:17:07.852Z,99474.16
2022-09-28T19:19:34.339Z,99473.63
2022-09-28T19:22:00.936Z,99471.47
2022-09-28T19:24:27.611Z,99483.16
2022-09-28T19:26:54.115Z,99480.13
2022-09-28T19:29:20.814Z,99483.59
2022-09-28T19:31:47.448Z,99475.22
2022-09-28T19:34:14.451Z,99486.63
2022-09-28T19:36:41.481Z,99479.09
2022-09-28T19:39:08.005Z,99488.81
2022-09-28T19:41:44.171Z,99490.09
2022-09-28T19:44:26.975Z,99488.03
2022-09-28T19:46:56.531Z,99491.63
2022-09-28T19:52:13.290Z,99495.19
2022-09-28T19:54:57.323Z,99495.34
2022-09-28T19:57:26.171Z,99500.03
2022-09-28T19:59:55.762Z,99486.88
2022-09-28T20:02:24.525Z,99494.94
2022-09-28T20:04:51.035Z,99508.66
2022-09-28T20:07:17.533Z,99505.38
2022-09-28T20:09:44.057Z,99513.59
2022-09-28T20:12:11.182Z,99508.81
2022-09-28T20:14:40.105Z,99513.19
2022-09-28T20:17:07.194Z,99517.88
2022-09-28T20:19:33.704Z,99520.06
2022-09-28T20:22:02.730Z,99509.78
2022-09-28T20:24:29.659Z,99517.47
2022-09-28T20:26:56.243Z,99496.78
2022-09-28T20:29:24.247Z,99512.81
2022-09-28T20:31:51.821Z,99518.16
2022-09-28T20:34:18.403Z,99504.59
2022-09-28T20:36:44.893Z,99508.41
2022-09-28T20:39:12.307Z,99512.28
2022-09-28T20:41:38.828Z,99508.28
2022-09-28T20:44:06.665Z,99506.66
2022-09-28T20:46:36.985Z,99506.75
2022-09-28T20:49:04.458Z,99511.44
2022-09-28T20:51:31.139Z,99507.03
2022-09-28T20:53:58.874Z,99493.75
2022-09-28T20:56:26.941Z,99513.75
2022-09-28T20:58:54.404Z,99511.28
2022-09-28T21:01:20.931Z,99519.66
2022-09-28T21:03:53.239Z,99515.28
2022-09-28T21:06:21.972Z,99516.81
2022-09-28T21:08:49.561Z,99511.94
2022-09-28T21:11:18.024Z,99523.66
2022-09-28T21:13:45.232Z,99514.47
2022-09-28T21:16:14.595Z,99512.78
2022-09-28T21:18:41.356Z,99509.75
2022-09-28T21:21:19.439Z,99512.09
2022-09-28T21:23:46.672Z,99509.09
2022-09-28T21:26:24.834Z,99510.31
2022-09-28T21:29:02.977Z,99519.78
2022-09-28T21:31:38.436Z,99512.53
2022-09-28T21:34:04.957Z,99517.56
2022-09-28T21:36:31.860Z,99518.53
2022-09-28T21:38:58.361Z,99512.22
2022-09-28T21:41:25.393Z,99514.47
2022-09-28T21:43:52.380Z,99522.00
2022-09-28T21:46:18.932Z,99514.19
2022-09-28T21:48:45.514Z,99516.66
2022-09-28T21:51:15.106Z,99514.72
2022-09-28T21:53:42.595Z,99509.38
2022-09-28T21:56:10.951Z,99510.06
2022-09-28T21:58:37.694Z,99516.66
2022-09-28T22:01:14.688Z,99513.09
2022-09-28T22:03:43.938Z,99518.16
2022-09-28T22:06:11.341Z,99519.66
2022-09-28T22:08:38.391Z,99527.06
2022-09-28T22:11:06.486Z,99531.84
2022-09-28T22:13:39.398Z,99528.97
2022-09-28T22:16:06.042Z,99524.56
2022-09-28T22:18:34.003Z,99520.75
2022-09-28T22:21:02.800Z,99525.13
2022-09-28T22:23:30.049Z,99520.19
2022-09-28T22:26:00.419Z,99518.56
2022-09-28T22:28:28.081Z,99516.50
2022-09-28T22:30:54.821Z,99524.72
2022-09-28T22:33:21.442Z,99514.72
2022-09-28T22:35:49.204Z,99515.41
2022-09-28T22:38:15.832Z,99525.78
2022-09-28T22:40:47.067Z,99525.41
2022-09-28T22:43:13.615Z,99528.16
2022-09-28T22:45:40.047Z,99523.50
2022-09-28T22:48:07.158Z,99524.44
2022-09-28T22:50:34.368Z,99529.66
2022-09-28T22:53:01.947Z,99524.59
2022-09-28T22:55:29.164Z,99530.22
2022-09-28T22:57:55.671Z,99538.84
2022-09-28T23:00:22.224Z,99532.97
2022-09-28T23:02:48.678Z,99539.25
2022-09-28T23:05:16.941Z,99524.63
2022-09-28T23:07:43.614Z,99527.63
2022-09-28T23:10:10.094Z,99525.84
2022-09-28T23:12:36.579Z,99519.94
2022-09-28T23:15:03.148Z,99521.06
2022-09-28T23:17:29.595Z,99521.84
2022-09-28T23:19:55.997Z,99525.56
2022-09-28T23:22:22.513Z,99518.84
2022-09-28T23:24:48.952Z,99523.47
2022-09-28T23:27:15.405Z,99518.28
2022-09-28T23:29:46.787Z,99528.69
2022-09-28T23:32:13.950Z,99522.78
2022-09-28T23:34:40.365Z,99520.88
2022-09-28T23:37:07.017Z,99517.59
2022-09-28T23:39:33.499Z,99518.13
2022-09-28T23:42:00.155Z,99516.31
2022-09-28T23:44:31.195Z,99524.97
2022-09-28T23:46:57.873Z,99520.00
2022-09-28T23:49:24.338Z,99521.81
2022-09-28T23:51:50.771Z,99520.81
2022-09-28T23:54:17.240Z,99519.06
2022-09-28T23:56:43.708Z,99520.28
2022-09-28T23:59:10.113Z,99521.22
